Time;durP1;ratioP1;P1;durP2;ratioP2;P2;SDS_P1;SDS_P2;PMS_P1;PMS_P2;Temp;Humidity;BMP_temperature;BMP_pressure;BME280_temperature;BME280_humidity;BME280_pressure;Samples;Min_cycle;Max_cycle;Signal;HPM_P1;HPM_P2
2024/01/28 00:01:35;;;;;;;20.83;10.00;;;;;;;2.03;93.27;103252.50;5039253;28;20037;-66
2024/01/28 00:04:00;;;;;;;19.70;9.67;;;;;;;2.00;93.37;103242.09;5037569;28;20071;-67
2024/01/28 00:06:25;;;;;;;23.03;9.27;;;;;;;2.01;93.35;103240.34;5040990;28;20029;-67
2024/01/28 00:08:51;;;;;;;27.03;10.60;;;;;;;1.96;93.19;103227.41;5043427;28;20722;-67
2024/01/28 00:11:16;;;;;;;20.77;9.83;;;;;;;1.95;93.18;103225.69;5041701;28;20041;-67
2024/01/28 00:13:41;;;;;;;23.07;10.13;;;;;;;1.95;93.58;103225.69;5038459;28;20064;-67
2024/01/28 00:16:19;;;;;;;20.70;9.90;;;;;;;1.93;93.44;103218.81;5043966;28;20116;-67
2024/01/28 00:18:45;;;;;;;23.83;9.83;;;;;;;1.91;93.70;103218.88;5032244;28;20071;-67
2024/01/28 00:21:10;;;;;;;26.63;11.33;;;;;;;1.86;93.59;103218.19;5043440;28;20036;-67
2024/01/28 00:23:36;;;;;;;21.37;10.37;;;;;;;1.84;93.69;103215.63;5042215;28;20051;-67
2024/01/28 00:26:02;;;;;;;23.43;10.40;;;;;;;1.84;93.60;103217.38;5042154;28;20037;-67
2024/01/28 00:28:28;;;;;;;26.57;10.77;;;;;;;1.85;94.06;103219.97;5037445;28;20122;-67
2024/01/28 00:30:54;;;;;;;23.17;10.47;;;;;;;1.84;93.84;103227.88;5041466;28;20115;-67
2024/01/28 00:33:19;;;;;;;22.13;10.67;;;;;;;1.85;94.05;103229.56;5040660;28;20075;-67
2024/01/28 00:35:45;;;;;;;24.63;10.43;;;;;;;1.80;93.86;103229.75;5040796;28;20041;-67
2024/01/28 00:38:10;;;;;;;22.97;10.87;;;;;;;1.73;93.97;103222.13;5040695;28;20040;-67
2024/01/28 00:40:35;;;;;;;18.93;10.50;;;;;;;1.71;94.08;103219.59;5039510;28;20086;-67
2024/01/28 00:43:04;;;;;;;23.37;11.10;;;;;;;1.70;94.33;103217.88;5034571;28;20041;-67
2024/01/28 00:45:31;;;;;;;23.30;10.65;;;;;;;1.68;93.90;103216.22;5037571;28;20111;-67
2024/01/28 00:47:56;;;;;;;23.57;10.97;;;;;;;1.67;94.34;103210.13;5036635;28;20136;-67
2024/01/28 00:50:22;;;;;;;23.23;11.07;;;;;;;1.68;94.32;103209.22;5037902;28;20099;-67
2024/01/28 00:52:48;;;;;;;25.20;10.57;;;;;;;1.70;94.74;103211.78;5037628;28;20036;-67
2024/01/28 00:55:14;;;;;;;24.23;11.00;;;;;;;1.69;94.62;103205.69;5036697;28;20029;-67
2024/01/28 00:57:40;;;;;;;26.67;10.93;;;;;;;1.68;94.54;103203.13;5044202;28;20039;-67
2024/01/28 01:00:06;;;;;;;18.60;11.00;;;;;;;1.67;94.72;103196.19;5037330;28;20020;-67
2024/01/28 01:02:32;;;;;;;26.13;11.93;;;;;;;1.60;94.50;103184.22;5041095;28;20754;-67
2024/01/28 01:04:57;;;;;;;21.80;10.77;;;;;;;1.61;94.21;103184.16;5044862;28;20028;-67
2024/01/28 01:07:23;;;;;;;24.20;11.53;;;;;;;1.60;94.54;103186.84;5036490;28;20017;-67
2024/01/28 01:09:48;;;;;;;29.13;11.33;;;;;;;1.59;94.87;103187.75;5037190;28;20122;-67
2024/01/28 01:12:14;;;;;;;24.37;10.70;;;;;;;1.59;94.85;103187.75;5038254;28;20024;-67
2024/01/28 01:14:39;;;;;;;21.83;10.90;;;;;;;1.59;94.98;103179.91;5038272;28;20025;-67
2024/01/28 01:17:05;;;;;;;24.87;10.60;;;;;;;1.57;95.16;103177.34;5039089;28;20033;-67
2024/01/28 01:19:30;;;;;;;28.27;10.73;;;;;;;1.54;94.85;103177.44;5029674;28;20025;-67
2024/01/28 01:21:57;;;;;;;22.50;11.03;;;;;;;1.52;94.90;103180.13;5046350;28;20556;-67
2024/01/28 01:24:25;;;;;;;25.23;11.40;;;;;;;1.48;94.92;103172.44;5042831;28;20614;-67
2024/01/28 01:26:51;;;;;;;27.23;11.10;;;;;;;1.46;95.25;103171.63;5042885;28;20383;-67
2024/01/28 01:29:16;;;;;;;25.80;10.80;;;;;;;1.43;95.16;103164.72;5041595;28;20029;-67
2024/01/28 01:31:41;;;;;;;23.80;11.03;;;;;;;1.40;95.12;103164.81;5043660;28;20110;-66
2024/01/28 01:34:07;;;;;;;24.43;11.30;;;;;;;1.38;95.20;103163.16;5046988;28;20033;-67
2024/01/28 01:36:32;;;;;;;20.77;10.13;;;;;;;1.39;95.37;103157.88;5044721;28;20124;-67
2024/01/28 01:38:57;;;;;;;21.33;11.17;;;;;;;1.33;95.38;103162.50;5040119;28;20086;-67
2024/01/28 01:41:25;;;;;;;23.67;10.87;;;;;;;1.30;95.12;103173.91;5044988;28;20112;-67
2024/01/28 01:43:50;;;;;;;21.07;10.00;;;;;;;1.21;94.91;103169.88;5040533;28;20032;-67
2024/01/28 01:46:15;;;;;;;22.00;9.77;;;;;;;1.22;94.77;103179.44;5044771;28;20098;-67
2024/01/28 01:48:41;;;;;;;25.10;10.73;;;;;;;1.23;95.30;103177.66;5040531;28;20032;-67
2024/01/28 01:51:07;;;;;;;20.63;10.40;;;;;;;1.20;95.20;103180.38;5044295;28;20552;-67
2024/01/28 01:53:34;;;;;;;23.73;10.50;;;;;;;1.22;95.63;103189.91;5044596;28;20036;-67
2024/01/28 01:56:00;;;;;;;20.50;10.33;;;;;;;1.16;95.87;103186.66;5040705;28;20029;-67
2024/01/28 01:58:26;;;;;;;20.13;10.67;;;;;;;1.14;95.53;103183.19;5046057;28;20110;-67
2024/01/28 02:00:52;;;;;;;23.97;9.83;;;;;;;1.08;95.84;103186.88;5042359;28;20012;-67
2024/01/28 02:03:17;;;;;;;22.40;10.70;;;;;;;1.08;95.77;103179.03;5044790;28;20021;-67
2024/01/28 02:05:42;;;;;;;21.50;10.87;;;;;;;1.06;96.04;103185.22;5042072;28;20021;-67
2024/01/28 02:08:08;;;;;;;20.13;10.67;;;;;;;1.00;95.91;103177.59;5042077;28;20067;-67
2024/01/28 02:10:33;;;;;;;20.03;10.37;;;;;;;0.99;96.14;103183.72;5043143;28;20037;-67
2024/01/28 02:12:59;;;;;;;22.10;10.93;;;;;;;0.96;96.24;103173.38;5044600;28;20052;-67
2024/01/28 02:15:24;;;;;;;25.80;10.30;;;;;;;0.87;96.08;103170.16;5035779;28;20025;-67
2024/01/28 02:17:50;;;;;;;25.60;10.87;;;;;;;0.79;96.05;103166.91;5038726;28;20129;-66
2024/01/28 02:20:15;;;;;;;24.57;10.57;;;;;;;0.75;95.92;103156.63;5042721;28;20035;-67
2024/01/28 02:22:41;;;;;;;23.97;10.70;;;;;;;0.69;96.39;103155.06;5043245;28;20051;-67
2024/01/28 02:25:06;;;;;;;21.93;10.47;;;;;;;0.64;96.23;103148.28;5042352;28;20033;-67
2024/01/28 02:27:31;;;;;;;19.00;9.97;;;;;;;0.56;96.41;103144.13;5043282;28;20037;-67
2024/01/28 02:29:57;;;;;;;22.27;10.07;;;;;;;0.62;96.27;103127.41;5042243;28;20099;-67
2024/01/28 02:32:22;;;;;;;23.80;11.17;;;;;;;0.58;96.48;103125.81;5045659;28;20024;-67
2024/01/28 02:34:47;;;;;;;20.30;9.40;;;;;;;0.55;96.60;103131.97;5040683;28;20101;-67
2024/01/28 02:37:13;;;;;;;20.53;9.73;;;;;;;0.55;96.52;103126.72;5045165;28;20619;-67
2024/01/28 02:39:39;;;;;;;25.67;10.40;;;;;;;0.58;96.48;103129.28;5044075;28;20024;-67
2024/01/28 02:42:05;;;;;;;23.63;10.27;;;;;;;0.60;96.70;103129.22;5044234;28;20056;-67
2024/01/28 02:44:30;;;;;;;20.03;10.07;;;;;;;0.62;96.68;103122.19;5045355;28;20067;-67
2024/01/28 02:46:56;;;;;;;24.57;10.30;;;;;;;0.62;96.58;103122.19;5041354;28;20566;-67
2024/01/28 02:49:23;;;;;;;22.93;10.50;;;;;;;0.61;96.65;103120.47;5040370;28;20041;-67
2024/01/28 02:51:50;;;;;;;20.47;9.87;;;;;;;0.63;96.76;103123.03;5045091;28;20223;-68
2024/01/28 02:54:15;;;;;;;20.00;9.43;;;;;;;0.63;96.56;103117.81;5043437;28;20092;-67
2024/01/28 02:56:40;;;;;;;19.80;9.33;;;;;;;0.65;96.73;103116.84;5048882;28;20054;-67
2024/01/28 02:59:06;;;;;;;18.90;9.43;;;;;;;0.67;96.63;103115.03;5039240;28;20091;-67
2024/01/28 03:01:31;;;;;;;21.17;8.47;;;;;;;0.67;96.81;103109.81;5043394;28;20033;-67
2024/01/28 03:03:56;;;;;;;20.13;9.03;;;;;;;0.71;96.65;103116.63;5045167;28;20075;-67
2024/01/28 03:06:21;;;;;;;17.83;8.50;;;;;;;0.73;96.37;103111.34;5042667;28;20032;-67
2024/01/28 03:08:47;;;;;;;23.17;8.60;;;;;;;0.77;96.16;103111.19;5044161;28;20401;-67
2024/01/28 03:11:12;;;;;;;21.63;8.90;;;;;;;0.77;96.54;103105.97;5044167;28;20075;-67
2024/01/28 03:13:38;;;;;;;19.63;8.57;;;;;;;0.80;96.45;103098.00;5043768;28;20098;-67
2024/01/28 03:16:03;;;;;;;18.07;8.40;;;;;;;0.80;96.55;103102.38;5041487;28;20079;-68
2024/01/28 03:18:29;;;;;;;22.43;8.73;;;;;;;0.81;96.49;103091.88;5032571;28;20029;-67
2024/01/28 03:20:54;;;;;;;23.90;8.77;;;;;;;0.80;96.38;103090.16;5037274;28;20037;-67
2024/01/28 03:23:19;;;;;;;17.93;8.63;;;;;;;0.80;96.32;103084.09;5045064;28;20130;-67
2024/01/28 03:25:45;;;;;;;20.03;9.10;;;;;;;0.80;95.88;103094.53;5037524;28;20120;-67
2024/01/28 03:28:10;;;;;;;23.43;8.87;;;;;;;0.78;96.26;103098.97;5040311;28;20032;-67
2024/01/28 03:30:36;;;;;;;21.07;8.63;;;;;;;0.78;96.17;103098.97;5038077;28;20029;-67
2024/01/28 03:33:01;;;;;;;22.40;9.83;;;;;;;0.75;95.91;103094.69;5038431;28;21146;-67
2024/01/28 03:35:27;;;;;;;19.87;9.10;;;;;;;0.73;95.82;103095.66;5038575;28;20113;-67
2024/01/28 03:37:52;;;;;;;17.37;9.07;;;;;;;0.69;95.72;103105.38;5039155;28;20059;-67
2024/01/28 03:40:17;;;;;;;19.40;8.67;;;;;;;0.65;95.80;103098.53;5039442;28;20029;-67
2024/01/28 03:42:43;;;;;;;20.73;8.73;;;;;;;0.63;95.95;103095.13;5038680;28;20121;-67
2024/01/28 03:45:11;;;;;;;20.20;8.93;;;;;;;0.58;95.89;103086.59;5042098;28;20063;-67
2024/01/28 03:47:37;;;;;;;20.17;9.33;;;;;;;0.52;95.83;103089.38;5039528;28;20586;-67
2024/01/28 03:50:05;;;;;;;20.47;9.10;;;;;;;0.47;95.91;103081.69;5037489;28;20040;-67
2024/01/28 03:52:31;;;;;;;19.87;8.87;;;;;;;0.41;95.69;103083.66;5040845;28;20024;-67
2024/01/28 03:54:56;;;;;;;20.53;9.37;;;;;;;0.37;95.83;103087.28;5042599;28;20759;-67
2024/01/28 03:57:22;;;;;;;22.17;9.07;;;;;;;0.32;96.13;103081.34;5039598;28;20521;-66
2024/01/28 03:59:47;;;;;;;19.57;9.17;;;;;;;0.27;96.18;103087.56;5042542;28;20029;-66
2024/01/28 04:02:14;;;;;;;19.97;9.33;;;;;;;0.23;96.19;103079.88;5042016;28;20025;-66
2024/01/28 04:04:40;;;;;;;18.53;9.20;;;;;;;0.20;96.71;103078.22;5037194;28;20036;-66
2024/01/28 04:07:05;;;;;;;21.73;9.43;;;;;;;0.11;96.87;103078.50;5046493;28;20398;-66
2024/01/28 04:09:30;;;;;;;19.10;9.10;;;;;;;0.12;96.64;103090.66;5040924;28;20033;-67
2024/01/28 04:11:56;;;;;;;17.30;9.10;;;;;;;0.07;96.87;103083.88;5033287;28;20176;-66
2024/01/28 04:14:21;;;;;;;16.87;9.20;;;;;;;0.08;96.99;103080.38;5040252;28;20041;-66
2024/01/28 04:16:46;;;;;;;17.40;9.30;;;;;;;0.05;96.94;103086.53;5047435;28;20032;-66
2024/01/28 04:19:12;;;;;;;16.73;8.97;;;;;;;0.04;97.21;103082.22;5043334;28;20060;-66
2024/01/28 04:21:37;;;;;;;19.20;10.00;;;;;;;0.00;97.34;103075.38;5037571;28;20028;-66
2024/01/28 04:24:03;;;;;;;21.87;9.63;;;;;;;0.01;97.52;103065.78;5042404;28;20185;-67
2024/01/28 04:26:28;;;;;;;21.23;9.00;;;;;;;0.08;97.74;103068.16;5038515;28;20033;-66
2024/01/28 04:28:53;;;;;;;18.23;9.80;;;;;;;0.13;98.04;103055.81;5045701;28;20043;-66
2024/01/28 04:31:19;;;;;;;23.73;9.50;;;;;;;0.14;97.90;103060.13;5048447;28;20115;-67
2024/01/28 04:33:45;;;;;;;19.40;8.70;;;;;;;0.15;97.83;103046.16;5043204;28;20102;-67
2024/01/28 04:36:10;;;;;;;16.90;8.30;;;;;;;0.16;97.68;103050.47;5037422;28;20438;-66
2024/01/28 04:38:36;;;;;;;19.60;8.50;;;;;;;0.16;97.78;103045.25;5043208;28;20186;-66
2024/01/28 04:41:02;;;;;;;19.67;8.37;;;;;;;0.18;97.61;103042.59;5042102;28;20029;-66
2024/01/28 04:43:27;;;;;;;19.93;8.13;;;;;;;0.18;97.60;103035.59;5037808;28;20501;-66
2024/01/28 04:45:53;;;;;;;18.30;7.97;;;;;;;0.20;97.58;103035.56;5040112;28;20543;-66
2024/01/28 04:48:19;;;;;;;21.10;8.00;;;;;;;0.20;97.57;103035.56;5040433;28;20052;-66
2024/01/28 04:50:44;;;;;;;21.23;8.70;;;;;;;0.19;97.60;103028.63;5036366;28;20117;-66
2024/01/28 04:53:10;;;;;;;20.70;8.30;;;;;;;0.19;97.53;103033.84;5043111;28;20039;-66
2024/01/28 04:55:35;;;;;;;18.43;8.30;;;;;;;0.18;97.49;103029.53;5041323;28;20047;-66
2024/01/28 04:58:02;;;;;;;17.63;8.03;;;;;;;0.18;97.42;103027.75;5036968;28;20033;-66
2024/01/28 05:00:27;;;;;;;22.67;8.23;;;;;;;0.17;97.44;103026.06;5037252;28;20064;-66
2024/01/28 05:02:55;;;;;;;20.00;7.73;;;;;;;0.18;97.37;103019.06;5037508;28;20076;-66
2024/01/28 05:05:21;;;;;;;17.30;7.57;;;;;;;0.17;97.34;103040.88;5039844;28;20025;-67
2024/01/28 05:07:46;;;;;;;21.93;7.63;;;;;;;0.16;97.55;103031.34;5040330;28;20029;-66
2024/01/28 05:10:12;;;;;;;18.27;8.33;;;;;;;0.17;97.66;103030.44;5037187;28;20532;-66
2024/01/28 05:12:38;;;;;;;16.83;7.63;;;;;;;0.17;97.51;103026.06;5037922;28;20404;-66
2024/01/28 05:15:04;;;;;;;20.07;7.90;;;;;;;0.16;97.59;103026.97;5037432;28;20037;-66
2024/01/28 05:17:29;;;;;;;15.63;7.40;;;;;;;0.15;97.39;103029.63;5038827;28;20032;-66
2024/01/28 05:19:55;;;;;;;20.53;7.97;;;;;;;0.12;97.66;103027.13;5039175;28;20673;-66
2024/01/28 05:22:22;;;;;;;18.00;7.33;;;;;;;0.12;97.85;103027.97;5037756;28;20032;-66
2024/01/28 05:24:49;;;;;;;17.27;6.87;;;;;;;0.07;97.51;103018.59;5036773;28;20079;-66
2024/01/28 05:27:15;;;;;;;15.70;7.30;;;;;;;0.10;97.48;103021.09;5043481;28;20040;-66
2024/01/28 05:29:40;;;;;;;19.93;7.60;;;;;;;0.07;97.33;103003.75;5039811;28;20025;-66
2024/01/28 05:32:06;;;;;;;18.70;7.67;;;;;;;0.03;97.42;103010.00;5039103;28;20033;-66
2024/01/28 05:34:31;;;;;;;18.50;7.47;;;;;;;0.03;97.56;103004.78;5037783;28;20044;-66
2024/01/28 05:36:56;;;;;;;17.47;7.37;;;;;;;-0.01;97.40;102997.91;5037734;28;20040;-66
2024/01/28 05:39:22;;;;;;;15.87;7.17;;;;;;;-0.01;97.40;103000.53;5035435;28;20048;-66
2024/01/28 05:41:47;;;;;;;20.20;7.97;;;;;;;0.02;97.65;102994.38;5031651;28;20576;-67
2024/01/28 05:44:12;;;;;;;18.50;7.90;;;;;;;0.02;97.85;102992.63;5033933;28;20025;-66
2024/01/28 05:46:38;;;;;;;19.50;7.17;;;;;;;0.03;97.52;102986.47;5031430;28;20040;-66
2024/01/28 05:49:03;;;;;;;19.33;8.07;;;;;;;0.03;97.73;102975.19;5036515;28;20657;-66
2024/01/28 05:51:30;;;;;;;19.47;7.80;;;;;;;-0.01;97.71;102972.63;5037448;28;20073;-66
2024/01/28 05:53:56;;;;;;;17.93;7.23;;;;;;;-0.02;97.71;102976.16;5034210;28;20415;-66
2024/01/28 05:56:21;;;;;;;18.20;7.90;;;;;;;-0.01;97.69;102974.41;5033759;28;20036;-66
2024/01/28 05:58:49;;;;;;;20.30;7.57;;;;;;;-0.03;97.61;102978.81;5036013;28;20028;-66
2024/01/28 06:01:14;;;;;;;20.63;7.20;;;;;;;-0.03;97.75;102966.63;5043164;28;20032;-66
2024/01/28 06:03:41;;;;;;;14.63;7.43;;;;;;;-0.06;97.54;102958.03;5037053;28;20033;-66
2024/01/28 06:06:07;;;;;;;17.63;7.83;;;;;;;-0.06;97.88;102963.25;5030782;28;20041;-66
2024/01/28 06:08:32;;;;;;;18.40;7.33;;;;;;;-0.03;97.52;102960.53;5036663;28;20033;-66
2024/01/28 06:10:58;;;;;;;17.97;6.80;;;;;;;-0.05;97.72;102954.50;5036552;28;20338;-66
2024/01/28 06:13:23;;;;;;;18.13;7.60;;;;;;;-0.09;97.76;102945.94;5042661;28;20033;-66
2024/01/28 06:15:49;;;;;;;16.10;7.63;;;;;;;-0.12;97.43;102947.78;5039273;28;20201;-66
2024/01/28 06:18:14;;;;;;;16.53;7.17;;;;;;;-0.15;97.65;102945.28;5040568;28;20078;-66
2024/01/28 06:20:40;;;;;;;19.13;8.03;;;;;;;-0.16;97.43;102952.25;5039423;28;20020;-66
2024/01/28 06:23:05;;;;;;;19.40;8.07;;;;;;;-0.16;97.65;102952.25;5043815;28;20418;-66
2024/01/28 06:25:30;;;;;;;19.47;8.13;;;;;;;-0.16;97.54;102943.56;5038918;28;20021;-66
2024/01/28 06:27:56;;;;;;;18.83;7.70;;;;;;;-0.17;97.72;102942.72;5040887;28;20091;-66
2024/01/28 06:30:21;;;;;;;14.80;7.20;;;;;;;-0.18;97.52;102946.25;5042125;28;20028;-66
2024/01/28 06:32:46;;;;;;;17.43;7.80;;;;;;;-0.19;97.74;102938.47;5041310;28;20402;-66
2024/01/28 06:35:12;;;;;;;16.57;7.20;;;;;;;-0.21;97.63;102927.22;5040213;28;20636;-66
2024/01/28 06:37:37;;;;;;;16.13;7.27;;;;;;;-0.22;97.43;102928.13;5048076;28;20032;-66
2024/01/28 06:40:03;;;;;;;19.43;8.43;;;;;;;-0.27;97.62;102932.63;5040830;28;20155;-66
2024/01/28 06:42:31;;;;;;;19.90;7.93;;;;;;;-0.31;97.27;102926.63;5046981;28;20020;-66
2024/01/28 06:44:57;;;;;;;14.32;7.30;;;;;;;-0.28;97.33;102923.09;5046169;28;20070;-66
2024/01/28 06:47:23;;;;;;;21.07;7.80;;;;;;;-0.29;97.46;102929.19;5041811;28;20058;-66
2024/01/28 06:49:50;;;;;;;21.07;7.23;;;;;;;-0.28;97.81;102933.53;5052247;28;20052;-66
2024/01/28 06:52:15;;;;;;;16.87;7.70;;;;;;;-0.28;97.64;102938.75;5041724;28;20036;-66
2024/01/28 06:54:43;;;;;;;18.63;7.10;;;;;;;-0.28;97.77;102934.41;5040757;28;20039;-67
2024/01/28 06:57:08;;;;;;;19.83;7.60;;;;;;;-0.29;97.83;102934.41;5039339;28;20040;-66
2024/01/28 06:59:34;;;;;;;27.23;7.63;;;;;;;-0.31;97.63;102935.31;5043298;28;20033;-66
2024/01/28 07:01:59;;;;;;;20.30;7.77;;;;;;;-0.32;97.56;102931.00;5040712;28;20461;-66
2024/01/28 07:04:25;;;;;;;17.17;7.90;;;;;;;-0.32;97.65;102930.16;5045548;28;20029;-66
2024/01/28 07:06:50;;;;;;;16.77;7.20;;;;;;;-0.34;97.57;102926.72;5039880;28;20086;-66
2024/01/28 07:09:17;;;;;;;17.97;7.67;;;;;;;-0.33;97.56;102933.66;5055561;28;20036;-66
2024/01/28 07:11:43;;;;;;;18.83;8.10;;;;;;;-0.35;97.66;102925.88;5047825;28;20506;-66
2024/01/28 07:14:08;;;;;;;18.93;7.60;;;;;;;-0.37;97.42;102924.22;5046063;28;20032;-66
2024/01/28 07:16:34;;;;;;;15.83;7.37;;;;;;;-0.40;97.35;102934.78;5041111;28;20100;-66
2024/01/28 07:19:00;;;;;;;21.07;7.93;;;;;;;-0.43;97.19;102934.88;5045555;28;20544;-66
2024/01/28 07:21:26;;;;;;;15.10;6.97;;;;;;;-0.41;97.22;102930.44;5047984;28;20037;-66
2024/01/28 07:23:51;;;;;;;18.83;7.37;;;;;;;-0.41;97.31;102931.31;5040902;28;20021;-66
2024/01/28 07:26:17;;;;;;;17.53;7.57;;;;;;;-0.42;97.60;102929.59;5042369;28;20032;-66
2024/01/28 07:28:42;;;;;;;17.27;7.17;;;;;;;-0.40;97.39;102930.41;5039791;28;20043;-66
2024/01/28 07:31:09;;;;;;;15.27;7.10;;;;;;;-0.38;97.43;102923.38;5042286;28;20028;-66
2024/01/28 07:33:34;;;;;;;16.67;7.40;;;;;;;-0.40;97.58;102914.75;5049640;28;20448;-66
2024/01/28 07:36:00;;;;;;;17.97;8.20;;;;;;;-0.40;97.45;102916.50;5046924;28;20039;-66
2024/01/28 07:38:25;;;;;;;14.60;7.47;;;;;;;-0.38;97.48;102912.09;5039648;28;20264;-66
2024/01/28 07:40:51;;;;;;;17.87;7.50;;;;;;;-0.39;97.39;102919.06;5040015;28;20036;-66
2024/01/28 07:43:16;;;;;;;19.73;8.10;;;;;;;-0.36;97.72;102920.72;5042116;28;20808;-66
2024/01/28 07:45:42;;;;;;;21.77;7.67;;;;;;;-0.34;97.54;102918.91;5039766;28;20124;-66
2024/01/28 07:48:07;;;;;;;17.93;7.80;;;;;;;-0.36;97.65;102912.88;5041870;28;20032;-66
2024/01/28 07:50:33;;;;;;;15.77;7.23;;;;;;;-0.35;97.45;102912.84;5036938;28;20036;-66
2024/01/28 07:52:58;;;;;;;17.63;7.80;;;;;;;-0.35;97.65;102905.00;5039889;28;20068;-66
2024/01/28 07:55:24;;;;;;;18.67;8.07;;;;;;;-0.36;97.59;102915.50;5037264;28;20050;-66
2024/01/28 07:57:49;;;;;;;18.20;7.50;;;;;;;-0.36;97.46;102911.13;5033973;28;20087;-66
2024/01/28 08:00:15;;;;;;;17.37;7.37;;;;;;;-0.34;97.38;102911.06;5040919;28;20110;-66
2024/01/28 08:02:40;;;;;;;21.80;7.97;;;;;;;-0.28;97.83;102912.66;5039363;28;20105;-66
2024/01/28 08:05:06;;;;;;;20.23;8.13;;;;;;;-0.24;97.62;102906.44;5035978;28;20756;-66
2024/01/28 08:07:32;;;;;;;19.63;8.10;;;;;;;-0.16;97.57;102907.88;5032502;28;20033;-66
2024/01/28 08:09:57;;;;;;;17.83;8.03;;;;;;;-0.08;97.58;102899.78;5030662;28;20072;-66
2024/01/28 08:12:22;;;;;;;21.23;8.60;;;;;;;-0.02;97.52;102907.41;5037088;28;20051;-66
2024/01/28 08:14:47;;;;;;;18.43;8.07;;;;;;;0.10;97.49;102917.47;5039204;28;20037;-66
2024/01/28 08:17:13;;;;;;;17.60;8.33;;;;;;;0.16;97.22;102914.63;5035255;28;20033;-66
2024/01/28 08:19:39;;;;;;;19.67;8.23;;;;;;;0.27;97.48;102909.88;5033189;28;20045;-66
2024/01/28 08:22:07;;;;;;;20.93;8.70;;;;;;;0.39;97.29;102907.75;5033236;28;20029;-66
2024/01/28 08:24:32;;;;;;;18.10;8.60;;;;;;;0.49;97.17;102909.97;5034304;28;20026;-66
2024/01/28 08:26:58;;;;;;;16.13;8.40;;;;;;;0.57;96.98;102905.31;5030467;28;20065;-66
2024/01/28 08:29:24;;;;;;;21.90;9.23;;;;;;;0.65;96.98;102898.97;5040558;28;20038;-66
2024/01/28 08:31:50;;;;;;;15.37;8.87;;;;;;;0.75;96.86;102893.34;5037143;28;20409;-66
2024/01/28 08:34:16;;;;;;;18.00;8.70;;;;;;;0.88;96.43;102902.47;5038341;28;20033;-66
2024/01/28 08:36:41;;;;;;;19.73;9.63;;;;;;;0.93;96.46;102897.03;5041736;28;20033;-66
2024/01/28 08:39:09;;;;;;;23.40;9.90;;;;;;;1.04;95.99;102891.41;5033645;28;20029;-66
2024/01/28 08:41:35;;;;;;;16.43;9.80;;;;;;;1.09;95.57;102879.00;5029796;28;20527;-66
2024/01/28 08:44:01;;;;;;;20.00;10.23;;;;;;;1.24;95.73;102881.88;5042617;28;20118;-66
2024/01/28 08:46:26;;;;;;;20.00;10.20;;;;;;;1.36;95.56;102877.91;5035636;28;20067;-66
2024/01/28 08:48:52;;;;;;;20.20;9.73;;;;;;;1.46;95.25;102878.41;5032579;28;20028;-66
2024/01/28 08:51:18;;;;;;;18.33;9.30;;;;;;;1.48;94.85;102876.59;5020972;28;20029;-66
2024/01/28 08:53:43;;;;;;;19.70;8.97;;;;;;;1.59;94.54;102879.59;5038181;28;20486;-66
2024/01/28 08:56:08;;;;;;;18.70;9.30;;;;;;;1.61;94.32;102876.91;5041363;28;20637;-66
2024/01/28 08:58:34;;;;;;;17.60;8.40;;;;;;;1.63;93.67;102875.94;5032512;28;20116;-66
2024/01/28 09:00:59;;;;;;;22.73;8.43;;;;;;;1.63;93.43;102875.94;5039133;28;20105;-66
2024/01/28 09:03:24;;;;;;;17.83;8.07;;;;;;;1.66;93.52;102872.34;5047303;28;20029;-66
2024/01/28 09:05:50;;;;;;;19.17;9.10;;;;;;;1.73;93.01;102879.03;5038948;28;20028;-66
2024/01/28 09:08:15;;;;;;;18.40;8.50;;;;;;;1.72;93.14;102879.94;5038154;28;20565;-66
2024/01/28 09:10:40;;;;;;;16.93;8.33;;;;;;;1.74;93.23;102871.13;5039962;28;20104;-66
2024/01/28 09:13:05;;;;;;;19.10;8.33;;;;;;;1.78;92.82;102871.84;5045565;28;20036;-66
2024/01/28 09:15:31;;;;;;;17.20;8.20;;;;;;;1.86;92.40;102873.22;5045839;28;20468;-66
2024/01/28 09:17:56;;;;;;;21.37;9.07;;;;;;;1.93;92.33;102871.19;5041557;28;20063;-66
2024/01/28 09:20:21;;;;;;;19.63;9.27;;;;;;;1.97;92.44;102867.53;5040917;28;20119;-66
2024/01/28 09:22:47;;;;;;;21.20;8.93;;;;;;;2.01;91.90;102866.47;5040526;28;20036;-66
2024/01/28 09:25:12;;;;;;;18.70;8.53;;;;;;;2.05;91.86;102861.97;5047817;28;20031;-66
2024/01/28 09:27:37;;;;;;;19.00;8.70;;;;;;;2.20;91.96;102861.31;5033461;28;20063;-66
2024/01/28 09:30:03;;;;;;;17.73;8.20;;;;;;;2.24;91.53;102851.53;5037314;28;20029;-66
2024/01/28 09:32:29;;;;;;;17.50;7.97;;;;;;;2.28;91.50;102856.56;5038407;28;20589;-66
2024/01/28 09:34:55;;;;;;;17.40;8.60;;;;;;;2.36;91.17;102859.72;5035311;28;20063;-66
2024/01/28 09:37:20;;;;;;;17.30;8.47;;;;;;;2.43;91.38;102855.06;5032541;28;20593;-66
2024/01/28 09:39:46;;;;;;;13.33;7.50;;;;;;;2.52;90.85;102859.88;5045381;28;20441;-66
2024/01/28 09:42:18;;;;;;;17.97;8.20;;;;;;;2.67;90.26;102859.19;5040824;28;20056;-66
2024/01/28 09:44:45;;;;;;;14.57;7.50;;;;;;;2.79;90.45;102853.38;5033680;28;20037;-66
2024/01/28 09:47:11;;;;;;;21.47;8.00;;;;;;;2.92;90.19;102852.81;5037823;28;20032;-66
2024/01/28 09:49:40;;;;;;;14.77;8.03;;;;;;;3.01;89.98;102852.38;5051540;28;20043;-67
2024/01/28 09:52:14;;;;;;;16.53;7.67;;;;;;;3.02;89.02;102859.34;5041925;28;20033;-67
2024/01/28 09:54:44;;;;;;;16.10;7.60;;;;;;;3.05;88.80;102851.31;5047364;28;20033;-67
2024/01/28 09:57:11;;;;;;;16.97;8.00;;;;;;;3.13;88.65;102849.16;5034112;28;20033;-67
2024/01/28 09:59:37;;;;;;;14.63;7.70;;;;;;;3.22;88.30;102838.25;5040283;28;20044;-67
2024/01/28 10:02:04;;;;;;;18.50;7.30;;;;;;;3.24;88.26;102839.03;5037939;28;20033;-67
2024/01/28 10:04:30;;;;;;;19.13;8.60;;;;;;;3.32;87.85;102836.88;5040333;28;20032;-67
2024/01/28 10:06:57;;;;;;;15.50;7.40;;;;;;;3.37;87.77;102832.22;5043068;28;20395;-67
2024/01/28 10:09:24;;;;;;;15.00;7.70;;;;;;;3.42;87.33;102829.38;5050004;28;20064;-67
2024/01/28 10:11:49;;;;;;;13.67;7.43;;;;;;;3.47;87.42;102831.78;5042539;28;20035;-67
2024/01/28 10:14:14;;;;;;;15.33;7.27;;;;;;;3.53;87.01;102832.34;5051227;28;20032;-67
2024/01/28 10:16:40;;;;;;;14.13;7.27;;;;;;;3.58;87.16;102818.97;5041247;28;20537;-67
2024/01/28 10:19:05;;;;;;;14.77;7.50;;;;;;;3.64;86.83;102821.28;5044706;28;20035;-67
2024/01/28 10:21:31;;;;;;;14.23;6.80;;;;;;;3.69;86.32;102819.28;5044061;28;20045;-67
2024/01/28 10:23:57;;;;;;;14.00;7.07;;;;;;;3.73;85.55;102820.81;5043370;28;20275;-67
2024/01/28 10:26:23;;;;;;;14.07;7.50;;;;;;;3.76;85.85;102819.81;5037587;28;20037;-67
2024/01/28 10:28:51;;;;;;;14.13;7.20;;;;;;;3.76;85.36;102825.94;5037755;28;20032;-67
2024/01/28 10:31:17;;;;;;;18.00;7.90;;;;;;;3.83;85.51;102831.72;5043106;28;20170;-66
2024/01/28 10:33:43;;;;;;;13.20;8.03;;;;;;;3.87;85.33;102834.13;5045979;28;20033;-67
2024/01/28 10:36:09;;;;;;;19.53;7.90;;;;;;;3.88;84.87;102827.94;5039093;28;20395;-67
2024/01/28 10:38:35;;;;;;;19.30;7.97;;;;;;;3.86;84.24;102827.16;5047462;28;20702;-67
2024/01/28 10:41:01;;;;;;;16.13;7.97;;;;;;;3.96;84.16;102817.88;5041808;28;20021;-67
2024/01/28 10:43:34;;;;;;;11.70;7.27;;;;;;;4.01;83.16;102823.72;5050569;28;20033;-67
2024/01/28 10:46:02;;;;;;;15.93;7.63;;;;;;;4.02;83.42;102821.94;5035932;28;20022;-67
2024/01/28 10:48:30;;;;;;;14.20;7.10;;;;;;;4.06;83.23;102813.00;5047549;28;20520;-67
2024/01/28 10:50:57;;;;;;;15.30;7.13;;;;;;;4.12;82.65;102809.19;5039458;28;20037;-67
2024/01/28 10:53:23;;;;;;;16.67;7.13;;;;;;;4.18;82.92;102809.72;5045997;28;20402;-67
2024/01/28 10:55:49;;;;;;;15.73;7.40;;;;;;;4.20;82.46;102807.00;5042373;28;20568;-67
2024/01/28 10:58:16;;;;;;;13.63;6.87;;;;;;;4.31;82.04;102807.28;5030579;28;20071;-67
2024/01/28 11:00:42;;;;;;;17.23;7.10;;;;;;;4.42;82.16;102799.69;5042532;28;20097;-67
2024/01/28 11:03:08;;;;;;;12.37;6.20;;;;;;;4.48;81.75;102787.97;5044124;28;20485;-67
2024/01/28 11:05:37;;;;;;;18.10;7.20;;;;;;;4.58;82.00;102787.38;5040280;28;20104;-67
2024/01/28 11:08:03;;;;;;;17.17;7.10;;;;;;;4.67;81.79;102786.03;5044147;28;20056;-67
2024/01/28 11:10:30;;;;;;;11.73;6.20;;;;;;;4.72;81.11;102777.88;5040612;28;20306;-67
2024/01/28 11:12:56;;;;;;;13.93;6.63;;;;;;;4.78;81.21;102769.66;5044630;28;20039;-67
2024/01/28 11:15:23;;;;;;;15.60;6.43;;;;;;;4.87;80.75;102771.75;5045852;28;20029;-67